createdAt,value
2018-10-16T00:00:18.253Z,15.23
2018-10-16T00:02:47.269Z,16.50
2018-10-16T00:05:16.552Z,16.50
2018-10-16T00:07:45.079Z,15.90
2018-10-16T00:10:13.611Z,15.27
2018-10-16T00:12:42.074Z,16.50
2018-10-16T00:15:10.945Z,15.67
2018-10-16T00:17:39.446Z,16.57
2018-10-16T00:20:08.038Z,16.00
2018-10-16T00:22:36.600Z,15.73
2018-10-16T00:25:05.571Z,15.77
2018-10-16T00:27:34.061Z,15.40
2018-10-16T00:30:02.544Z,14.67
2018-10-16T00:32:31.050Z,14.60
2018-10-16T00:34:59.539Z,15.23
2018-10-16T00:37:27.983Z,15.77
2018-10-16T00:39:56.450Z,14.47
2018-10-16T00:42:24.900Z,13.87
2018-10-16T00:44:53.346Z,13.17
2018-10-16T00:47:21.871Z,14.27
2018-10-16T00:49:50.363Z,14.17
2018-10-16T00:52:18.851Z,15.20
2018-10-16T00:54:47.359Z,16.57
2018-10-16T00:57:15.807Z,17.37
2018-10-16T00:59:44.278Z,17.40
2018-10-16T01:02:12.739Z,16.03
2018-10-16T01:04:41.244Z,16.30
2018-10-16T01:07:09.741Z,17.07
2018-10-16T01:09:38.207Z,16.13
2018-10-16T01:12:06.681Z,16.33
2018-10-16T01:14:35.151Z,16.37
2018-10-16T01:17:03.635Z,17.73
2018-10-16T01:19:32.130Z,17.50
2018-10-16T01:22:00.600Z,17.37
2018-10-16T01:24:29.142Z,17.20
2018-10-16T01:26:57.581Z,19.17
2018-10-16T01:29:26.043Z,17.10
2018-10-16T01:31:54.495Z,19.43
2018-10-16T01:34:22.987Z,18.47
2018-10-16T01:36:51.488Z,17.73
2018-10-16T01:39:19.958Z,18.03
2018-10-16T01:41:48.426Z,16.20
2018-10-16T01:44:16.876Z,16.10
2018-10-16T01:46:45.359Z,16.17
2018-10-16T01:49:13.785Z,16.30
2018-10-16T01:51:42.217Z,17.13
2018-10-16T01:54:10.747Z,17.87
2018-10-16T01:56:39.240Z,18.17
2018-10-16T01:59:07.710Z,18.00
2018-10-16T02:01:36.220Z,18.80
2018-10-16T02:04:04.700Z,19.47
2018-10-16T02:06:33.159Z,19.50
2018-10-16T02:09:01.663Z,20.90
2018-10-16T02:11:30.113Z,16.50
2018-10-16T02:13:58.649Z,13.30
2018-10-16T02:16:27.084Z,13.37
2018-10-16T02:18:55.614Z,14.03
2018-10-16T02:21:24.146Z,13.77
2018-10-16T02:23:52.628Z,14.93
2018-10-16T02:26:21.105Z,15.10
2018-10-16T02:28:49.594Z,13.70
2018-10-16T02:31:18.055Z,12.73
2018-10-16T02:33:46.765Z,12.93
2018-10-16T02:36:15.288Z,14.80
2018-10-16T02:38:43.947Z,17.43
2018-10-16T02:41:13.046Z,17.47
2018-10-16T02:43:41.872Z,18.30
2018-10-16T02:46:10.851Z,20.70
2018-10-16T02:48:39.665Z,19.37
2018-10-16T02:51:08.507Z,20.27
2018-10-16T02:53:37.025Z,20.27
2018-10-16T02:56:05.545Z,20.03
2018-10-16T02:58:34.019Z,22.47
2018-10-16T03:01:02.516Z,21.73
2018-10-16T03:03:35.030Z,21.30
2018-10-16T03:06:03.545Z,23.20
2018-10-16T03:08:32.079Z,24.50
2018-10-16T03:11:00.648Z,22.57
2018-10-16T03:13:29.107Z,23.40
2018-10-16T03:15:57.601Z,25.07
2018-10-16T03:18:26.139Z,23.00
2018-10-16T03:20:54.621Z,23.47
2018-10-16T03:23:23.095Z,24.90
2018-10-16T03:25:51.541Z,23.40
2018-10-16T03:28:20.001Z,23.57
2018-10-16T03:30:48.500Z,23.10
2018-10-16T03:33:16.954Z,24.30
2018-10-16T03:35:45.423Z,25.00
2018-10-16T03:38:13.930Z,27.30
2018-10-16T03:40:42.413Z,27.30
2018-10-16T03:43:10.895Z,25.50
2018-10-16T03:45:39.374Z,25.23
2018-10-16T03:48:07.909Z,25.63
2018-10-16T03:50:36.356Z,25.27
2018-10-16T03:53:05.469Z,26.07
2018-10-16T03:55:33.939Z,27.67
2018-10-16T03:58:02.704Z,28.37
2018-10-16T04:00:31.171Z,28.77
2018-10-16T04:02:59.654Z,27.23
2018-10-16T04:05:28.126Z,28.20
2018-10-16T04:07:56.606Z,27.30
2018-10-16T04:10:25.086Z,28.00
2018-10-16T04:12:53.628Z,28.37
2018-10-16T04:15:22.107Z,26.97
2018-10-16T04:17:50.644Z,26.90
2018-10-16T04:20:19.157Z,28.27
2018-10-16T04:22:47.635Z,30.47
2018-10-16T04:25:16.074Z,29.33
2018-10-16T04:27:44.524Z,28.77
2018-10-16T04:30:12.964Z,29.27
2018-10-16T04:32:41.405Z,30.57
2018-10-16T04:35:12.175Z,30.93
2018-10-16T04:37:40.635Z,29.43
2018-10-16T04:40:09.151Z,26.53
2018-10-16T04:42:37.613Z,26.67
2018-10-16T04:45:06.425Z,24.77
2018-10-16T04:47:34.956Z,23.13
2018-10-16T04:50:03.430Z,21.80
2018-10-16T04:52:31.934Z,22.20
2018-10-16T04:55:00.501Z,21.27
2018-10-16T04:57:28.897Z,17.17
2018-10-16T04:59:57.839Z,18.13
2018-10-16T05:02:26.301Z,19.63
2018-10-16T05:04:54.785Z,22.23
2018-10-16T05:07:23.249Z,21.20
2018-10-16T05:09:51.742Z,24.17
2018-10-16T05:12:20.270Z,25.30
2018-10-16T05:14:48.701Z,25.53
2018-10-16T05:17:17.169Z,24.10
2018-10-16T05:19:45.669Z,24.93
2018-10-16T05:22:14.115Z,25.30
2018-10-16T05:24:42.531Z,24.87
2018-10-16T05:27:10.983Z,26.47
2018-10-16T05:29:39.455Z,24.30
2018-10-16T05:32:07.968Z,26.53
2018-10-16T05:34:36.411Z,25.77
2018-10-16T05:37:05.284Z,24.83
2018-10-16T05:39:33.780Z,26.27
2018-10-16T05:42:02.308Z,26.87
2018-10-16T05:44:30.786Z,28.93
2018-10-16T05:46:59.440Z,28.50
2018-10-16T05:49:28.342Z,26.83
2018-10-16T05:51:56.859Z,27.20
2018-10-16T05:54:25.417Z,27.00
2018-10-16T05:56:53.929Z,25.97
2018-10-16T05:59:22.403Z,25.57
2018-10-16T06:01:51.148Z,26.90
2018-10-16T06:04:19.635Z,26.17
2018-10-16T06:06:48.135Z,25.83
2018-10-16T06:09:16.608Z,26.47
2018-10-16T06:11:45.068Z,25.73
2018-10-16T06:14:13.522Z,26.43
2018-10-16T06:16:41.967Z,25.80
2018-10-16T06:19:10.435Z,26.10
2018-10-16T06:21:38.879Z,24.73
2018-10-16T06:24:07.397Z,25.73
2018-10-16T06:26:36.001Z,26.10
2018-10-16T06:29:04.473Z,25.73
2018-10-16T06:31:33.077Z,25.47
2018-10-16T06:34:01.584Z,25.30
2018-10-16T06:36:30.093Z,24.93
2018-10-16T06:38:58.601Z,24.23
2018-10-16T06:41:27.112Z,23.67
2018-10-16T06:43:55.654Z,24.47
2018-10-16T06:46:24.278Z,23.20
2018-10-16T06:48:52.872Z,23.33
2018-10-16T06:51:21.148Z,24.13
2018-10-16T06:53:49.634Z,23.57
2018-10-16T06:56:18.146Z,23.00
2018-10-16T06:58:46.660Z,23.40
2018-10-16T07:01:15.265Z,24.10
2018-10-16T07:03:43.772Z,23.73
2018-10-16T07:06:12.264Z,23.17
2018-10-16T07:08:40.681Z,22.97
2018-10-16T07:11:09.264Z,22.53
2018-10-16T07:13:37.732Z,23.13
2018-10-16T07:16:06.593Z,22.87
2018-10-16T07:18:35.416Z,23.33
2018-10-16T07:21:04.020Z,23.00
2018-10-16T07:23:32.496Z,22.77
2018-10-16T07:26:01.013Z,22.13
2018-10-16T07:28:29.483Z,23.13
2018-10-16T07:30:57.950Z,23.67
2018-10-16T07:33:27.386Z,22.13
2018-10-16T07:35:55.926Z,22.50
2018-10-16T07:38:24.370Z,23.40
2018-10-16T07:40:52.834Z,24.03
2018-10-16T07:43:21.350Z,23.13
2018-10-16T07:45:49.809Z,22.03
2018-10-16T07:48:18.413Z,23.10
2018-10-16T07:50:46.818Z,25.10
2018-10-16T07:53:15.352Z,24.03
2018-10-16T07:55:43.844Z,22.83
2018-10-16T07:58:12.312Z,24.20
2018-10-16T08:00:40.744Z,23.53
2018-10-16T08:03:09.333Z,23.93
2018-10-16T08:05:37.833Z,23.83
2018-10-16T08:08:06.352Z,22.57
2018-10-16T08:10:34.942Z,23.17
2018-10-16T08:13:03.553Z,23.20
2018-10-16T08:15:32.125Z,22.93
2018-10-16T08:18:00.777Z,24.83
2018-10-16T08:20:30.230Z,22.67
2018-10-16T08:22:58.803Z,23.17
2018-10-16T08:25:27.339Z,22.63
2018-10-16T08:27:55.879Z,21.33
2018-10-16T08:30:24.386Z,20.47
2018-10-16T08:32:52.838Z,19.57
2018-10-16T08:35:21.283Z,20.80
2018-10-16T08:40:03.378Z,19.67
2018-10-16T08:44:51.560Z,20.80
2018-10-16T08:47:31.311Z,21.37
2018-10-16T08:50:10.876Z,20.53
2018-10-16T08:52:39.326Z,19.90
2018-10-16T08:55:07.853Z,19.57
2018-10-16T08:57:36.269Z,18.97
2018-10-16T09:00:05.224Z,19.80
2018-10-16T09:02:33.741Z,19.30
2018-10-16T09:05:02.322Z,19.90
2018-10-16T09:07:30.796Z,19.50
2018-10-16T09:09:59.372Z,19.77
2018-10-16T09:12:27.908Z,18.73
2018-10-16T09:14:56.406Z,20.10
2018-10-16T09:17:24.926Z,19.73
2018-10-16T09:19:53.518Z,20.43
2018-10-16T09:22:21.994Z,20.67
2018-10-16T09:24:50.497Z,20.20
2018-10-16T09:27:18.989Z,20.70
2018-10-16T09:29:47.544Z,19.83
2018-10-16T09:32:16.007Z,20.10
2018-10-16T09:34:44.536Z,20.67
2018-10-16T09:37:12.996Z,19.93
2018-10-16T09:39:41.490Z,20.27
2018-10-16T09:42:10.097Z,19.60
2018-10-16T09:44:38.578Z,19.60
2018-10-16T09:47:07.070Z,20.10
2018-10-16T09:49:35.761Z,18.30
2018-10-16T09:52:04.319Z,15.93
2018-10-16T09:54:32.797Z,16.87
2018-10-16T09:57:01.321Z,17.40
2018-10-16T09:59:29.898Z,15.47
2018-10-16T10:01:58.348Z,15.97
2018-10-16T10:04:26.883Z,15.93
2018-10-16T10:06:55.440Z,15.57
2018-10-16T10:09:23.935Z,14.53
2018-10-16T10:11:52.439Z,15.07
2018-10-16T10:14:21.014Z,12.93
2018-10-16T10:16:49.605Z,13.27
2018-10-16T10:19:18.100Z,13.37
2018-10-16T10:21:46.600Z,13.03
2018-10-16T10:24:15.061Z,13.43
2018-10-16T10:26:43.529Z,12.77
2018-10-16T10:29:12.005Z,13.00
2018-10-16T10:31:40.474Z,13.27
2018-10-16T10:34:08.999Z,12.87
2018-10-16T10:36:37.503Z,13.57
2018-10-16T10:39:09.295Z,13.10
2018-10-16T10:41:37.966Z,12.43
2018-10-16T10:44:06.925Z,12.17
2018-10-16T10:46:35.655Z,12.33
2018-10-16T10:49:04.415Z,13.70
2018-10-16T10:51:33.325Z,12.70
2018-10-16T10:54:01.547Z,13.10
2018-10-16T10:56:30.076Z,13.27
2018-10-16T10:58:58.624Z,13.33
2018-10-16T11:01:27.838Z,12.60
2018-10-16T11:03:56.325Z,12.47
2018-10-16T11:06:25.039Z,12.70
2018-10-16T11:08:53.499Z,12.27
2018-10-16T11:11:22.010Z,12.67
2018-10-16T11:13:50.518Z,11.97
2018-10-16T11:16:19.058Z,11.70
2018-10-16T11:18:47.539Z,11.80
2018-10-16T11:21:16.164Z,10.93
2018-10-16T11:23:44.646Z,10.93
2018-10-16T11:26:13.153Z,11.67
2018-10-16T11:28:41.611Z,10.27
2018-10-16T11:31:10.274Z,11.43
2018-10-16T11:33:38.811Z,11.67
2018-10-16T11:36:07.295Z,12.57
2018-10-16T11:38:35.770Z,11.13
2018-10-16T11:41:04.256Z,12.00
2018-10-16T11:43:32.744Z,10.87
2018-10-16T11:46:01.281Z,11.63
2018-10-16T11:48:29.733Z,9.33
2018-10-16T11:50:59.114Z,10.07
2018-10-16T11:53:27.647Z,10.37
2018-10-16T11:55:56.199Z,10.10
2018-10-16T11:58:24.639Z,9.80
2018-10-16T12:00:53.188Z,9.77
2018-10-16T12:03:21.709Z,9.97
2018-10-16T12:05:50.337Z,8.77
2018-10-16T12:08:18.838Z,9.70
2018-10-16T12:10:47.380Z,9.50
2018-10-16T12:13:15.887Z,9.00
2018-10-16T12:15:44.360Z,9.20
2018-10-16T12:18:19.368Z,8.30
2018-10-16T12:20:53.141Z,7.83
2018-10-16T12:23:21.574Z,8.13
2018-10-16T12:25:50.141Z,8.67
2018-10-16T12:28:18.670Z,7.67
2018-10-16T12:30:47.212Z,7.30
2018-10-16T12:33:15.820Z,8.00
2018-10-16T12:35:44.263Z,8.03
2018-10-16T12:38:12.724Z,7.77
2018-10-16T12:47:27.189Z,7.43
2018-10-16T12:49:55.670Z,7.60
2018-10-16T12:52:24.131Z,7.37
2018-10-16T12:54:52.601Z,7.50
2018-10-16T12:57:21.169Z,7.00
2018-10-16T12:59:49.623Z,7.27
2018-10-16T13:02:18.734Z,7.20
2018-10-16T13:04:47.271Z,7.60
2018-10-16T13:07:36.541Z,6.87
2018-10-16T13:10:10.007Z,7.30
2018-10-16T13:12:38.492Z,7.50
2018-10-16T13:15:08.501Z,8.07
2018-10-16T13:17:36.952Z,7.90
2018-10-16T13:20:06.144Z,7.90
2018-10-16T13:22:34.860Z,7.40
2018-10-16T13:25:03.337Z,7.50
2018-10-16T13:27:31.806Z,7.57
2018-10-16T13:30:00.369Z,7.47
2018-10-16T13:32:28.805Z,7.37
2018-10-16T13:34:57.452Z,6.87
2018-10-16T13:37:25.982Z,7.80
2018-10-16T13:39:54.472Z,7.33
2018-10-16T13:42:22.987Z,7.43
2018-10-16T13:44:51.459Z,7.57
2018-10-16T13:47:20.004Z,7.13
2018-10-16T13:49:48.445Z,7.97
2018-10-16T13:52:17.000Z,7.47
2018-10-16T13:54:45.539Z,7.30
2018-10-16T13:57:14.017Z,7.53
2018-10-16T13:59:42.475Z,7.30
2018-10-16T14:02:11.103Z,7.00
2018-10-16T14:04:39.767Z,7.50
2018-10-16T14:07:08.360Z,7.70
2018-10-16T14:09:36.936Z,6.93
2018-10-16T14:12:05.559Z,7.80
2018-10-16T14:14:34.028Z,7.60
2018-10-16T14:17:02.524Z,6.90
2018-10-16T14:19:30.989Z,6.77
2018-10-16T14:21:59.644Z,6.67
2018-10-16T14:24:28.153Z,7.00
2018-10-16T14:26:56.620Z,7.30
2018-10-16T14:29:25.154Z,6.60
2018-10-16T14:31:53.730Z,7.10
2018-10-16T14:34:22.487Z,7.33
2018-10-16T14:36:50.949Z,6.27
2018-10-16T14:39:19.485Z,6.60
2018-10-16T14:41:48.004Z,7.20
2018-10-16T14:44:16.524Z,6.47
2018-10-16T14:46:45.033Z,6.87
2018-10-16T14:49:13.490Z,7.27
2018-10-16T14:51:41.992Z,6.80
2018-10-16T14:54:10.450Z,6.77
2018-10-16T14:56:38.992Z,7.40
2018-10-16T14:59:07.575Z,6.40
2018-10-16T15:01:36.109Z,6.90
2018-10-16T15:04:05.095Z,7.17
2018-10-16T15:06:33.588Z,6.83
2018-10-16T15:09:02.122Z,7.23
2018-10-16T15:11:30.762Z,6.90
2018-10-16T15:13:59.456Z,7.37
2018-10-16T15:16:28.102Z,7.70
2018-10-16T15:18:56.611Z,7.90
2018-10-16T15:21:25.175Z,6.90
2018-10-16T15:23:53.869Z,7.17
2018-10-16T15:26:22.424Z,7.60
2018-10-16T15:28:51.012Z,7.87
2018-10-16T15:31:19.559Z,7.23
2018-10-16T15:33:48.073Z,8.33
2018-10-16T15:36:16.581Z,8.73
2018-10-16T15:38:45.085Z,8.40
2018-10-16T15:41:13.705Z,8.43
2018-10-16T15:43:42.217Z,8.60
2018-10-16T15:46:10.791Z,7.57
2018-10-16T15:48:39.264Z,7.87
2018-10-16T15:51:07.789Z,8.50
2018-10-16T15:53:36.308Z,7.97
2018-10-16T15:56:04.867Z,8.33
2018-10-16T15:58:33.304Z,8.47
2018-10-16T16:01:01.812Z,8.30
2018-10-16T16:03:30.381Z,9.60
2018-10-16T16:05:58.916Z,10.00
2018-10-16T16:08:27.536Z,10.13
2018-10-16T16:10:56.044Z,9.87
2018-10-16T16:13:24.610Z,10.00
2018-10-16T16:15:54.075Z,10.57
2018-10-16T16:18:22.625Z,10.63
2018-10-16T16:20:51.123Z,10.63
2018-10-16T16:23:19.671Z,10.33
2018-10-16T16:25:48.270Z,10.30
2018-10-16T16:28:16.800Z,10.77
2018-10-16T16:30:45.327Z,11.37
2018-10-16T16:33:13.889Z,11.20
2018-10-16T16:35:42.397Z,11.80
2018-10-16T16:38:10.942Z,12.07
2018-10-16T16:40:39.671Z,11.70
2018-10-16T16:43:08.195Z,12.37
2018-10-16T16:45:36.806Z,12.73
2018-10-16T16:48:05.357Z,12.73
2018-10-16T16:50:33.805Z,12.80
2018-10-16T16:53:02.317Z,12.63
2018-10-16T16:55:30.916Z,12.03
2018-10-16T16:57:59.448Z,12.80
2018-10-16T17:00:27.898Z,11.60
2018-10-16T17:02:56.375Z,12.03
2018-10-16T17:05:24.885Z,12.57
2018-10-16T17:07:53.417Z,11.87
2018-10-16T17:10:21.874Z,12.07
2018-10-16T17:12:50.344Z,11.50
2018-10-16T17:15:18.810Z,11.97
2018-10-16T17:17:47.464Z,11.90
2018-10-16T17:20:15.934Z,11.93
2018-10-16T17:22:44.458Z,11.87
2018-10-16T17:25:14.264Z,11.80
2018-10-16T17:27:43.425Z,11.90
2018-10-16T17:30:14.048Z,11.83
2018-10-16T17:32:43.316Z,12.87
2018-10-16T17:35:12.427Z,11.73
2018-10-16T17:37:41.531Z,12.57
2018-10-16T17:40:12.006Z,12.43
2018-10-16T17:42:40.608Z,13.53
2018-10-16T17:45:10.997Z,12.47
2018-10-16T17:47:39.489Z,12.80
2018-10-16T17:50:10.429Z,13.77
2018-10-16T17:52:39.042Z,12.60
2018-10-16T17:55:08.026Z,12.73
2018-10-16T17:57:36.934Z,12.50
2018-10-16T18:00:06.932Z,13.27
2018-10-16T18:02:35.445Z,14.80
2018-10-16T18:05:03.975Z,14.30
2018-10-16T18:07:32.435Z,14.00
2018-10-16T18:10:01.093Z,14.47
2018-10-16T18:12:29.588Z,15.37
2018-10-16T18:14:58.065Z,14.87
2018-10-16T18:17:26.575Z,15.60
2018-10-16T18:19:55.993Z,16.27
2018-10-16T18:22:24.511Z,17.00
2018-10-16T18:24:52.984Z,16.77
2018-10-16T18:27:21.459Z,16.07
2018-10-16T18:29:50.014Z,16.83
2018-10-16T18:32:18.548Z,16.50
2018-10-16T18:34:47.110Z,19.93
2018-10-16T18:37:15.567Z,19.20
2018-10-16T18:39:44.158Z,18.93
2018-10-16T18:42:12.530Z,18.80
2018-10-16T18:44:40.990Z,19.87
2018-10-16T18:47:09.493Z,19.10
2018-10-16T18:49:38.110Z,20.33
2018-10-16T18:52:06.607Z,20.93
2018-10-16T18:54:35.106Z,20.30
2018-10-16T18:57:03.582Z,19.33
2018-10-16T18:59:32.076Z,20.17
2018-10-16T19:02:00.669Z,20.23
2018-10-16T19:04:29.158Z,19.97
2018-10-16T19:06:57.724Z,19.20
2018-10-16T19:09:26.263Z,19.70
2018-10-16T19:11:54.789Z,20.27
2018-10-16T19:14:23.325Z,19.93
2018-10-16T19:16:51.843Z,21.07
2018-10-16T19:19:20.349Z,19.30
2018-10-16T19:21:48.804Z,18.10
2018-10-16T19:24:17.299Z,19.00
2018-10-16T19:26:45.823Z,17.57
2018-10-16T19:29:14.413Z,18.60
2018-10-16T19:31:42.944Z,19.27
2018-10-16T19:34:11.443Z,18.10
2018-10-16T19:36:39.991Z,18.73
2018-10-16T19:39:10.068Z,18.33
2018-10-16T19:41:38.751Z,18.77
2018-10-16T19:44:07.329Z,19.27
2018-10-16T19:46:36.692Z,17.50
2018-10-16T19:49:05.228Z,18.80
2018-10-16T19:51:33.865Z,18.40
2018-10-16T19:54:02.387Z,17.20
2018-10-16T19:56:30.858Z,16.97
2018-10-16T19:58:59.332Z,16.73
2018-10-16T20:01:28.062Z,17.37
2018-10-16T20:03:56.500Z,17.57
2018-10-16T20:06:25.856Z,18.47
2018-10-16T20:08:54.413Z,17.83
2018-10-16T20:11:22.865Z,17.70
2018-10-16T20:13:51.409Z,16.70
2018-10-16T20:16:19.881Z,18.60
2018-10-16T20:18:48.360Z,17.87
2018-10-16T20:21:16.865Z,19.37
2018-10-16T20:23:45.390Z,19.70
2018-10-16T20:26:13.930Z,18.60
2018-10-16T20:28:42.456Z,19.63
2018-10-16T20:31:11.020Z,18.20
2018-10-16T20:33:39.409Z,19.90
2018-10-16T20:36:07.889Z,18.80
2018-10-16T20:38:36.399Z,19.50
2018-10-16T20:41:05.255Z,19.00
2018-10-16T20:43:34.082Z,19.43
2018-10-16T20:46:02.586Z,20.07
2018-10-16T20:48:31.062Z,20.77
2018-10-16T20:50:59.536Z,20.07
2018-10-16T20:53:28.098Z,21.40
2018-10-16T20:55:56.564Z,20.93
2018-10-16T20:58:25.013Z,20.57
2018-10-16T21:00:53.749Z,21.83
2018-10-16T21:03:22.212Z,22.17
2018-10-16T21:05:50.939Z,22.33
2018-10-16T21:08:19.221Z,22.17
2018-10-16T21:10:47.702Z,22.63
2018-10-16T21:13:16.181Z,20.13
2018-10-16T21:15:44.705Z,21.93
2018-10-16T21:18:13.201Z,23.20
2018-10-16T21:20:41.652Z,21.40
2018-10-16T21:23:10.135Z,21.87
2018-10-16T21:25:38.569Z,20.90
2018-10-16T21:28:07.121Z,19.77
2018-10-16T21:30:35.612Z,21.43
2018-10-16T21:33:04.189Z,20.97
2018-10-16T21:35:32.703Z,21.13
2018-10-16T21:38:01.428Z,20.50
2018-10-16T21:40:30.083Z,20.63
2018-10-16T21:42:58.611Z,20.07
2018-10-16T21:45:27.277Z,20.83
2018-10-16T21:47:55.995Z,20.93
2018-10-16T21:50:24.763Z,22.60
2018-10-16T21:52:53.501Z,21.87
2018-10-16T21:55:22.511Z,21.67
2018-10-16T21:57:51.292Z,21.77
2018-10-16T22:00:25.517Z,21.83
2018-10-16T22:02:54.443Z,20.57
2018-10-16T22:05:23.795Z,22.97
2018-10-16T22:07:54.383Z,22.57
2018-10-16T22:10:24.172Z,22.27
2018-10-16T22:12:52.778Z,21.23
2018-10-16T22:15:21.718Z,21.80
2018-10-16T22:17:50.512Z,19.83
2018-10-16T22:20:19.016Z,20.97
2018-10-16T22:22:47.606Z,20.57
2018-10-16T22:25:16.291Z,21.33
2018-10-16T22:27:44.669Z,20.47
2018-10-16T22:30:13.127Z,19.23
2018-10-16T22:32:41.621Z,20.33
2018-10-16T22:35:11.202Z,18.20
2018-10-16T22:37:39.813Z,17.60
2018-10-16T22:40:09.322Z,17.47
2018-10-16T22:42:37.880Z,18.73
2018-10-16T22:45:07.170Z,19.00
2018-10-16T22:47:35.623Z,18.80
2018-10-16T22:50:04.623Z,18.47
2018-10-16T22:52:33.491Z,20.40
2018-10-16T22:55:02.072Z,19.93
2018-10-16T22:57:30.454Z,18.50
2018-10-16T22:59:58.903Z,17.43
2018-10-16T23:02:27.350Z,17.53
2018-10-16T23:04:55.898Z,17.00
2018-10-16T23:07:24.363Z,17.57
2018-10-16T23:09:52.858Z,17.47
2018-10-16T23:12:21.363Z,17.03
2018-10-16T23:14:49.827Z,16.70
2018-10-16T23:17:18.304Z,16.33
2018-10-16T23:19:46.764Z,15.60
2018-10-16T23:22:15.242Z,17.13
2018-10-16T23:24:44.200Z,17.40
2018-10-16T23:27:12.760Z,16.97
2018-10-16T23:29:41.212Z,16.10
2018-10-16T23:32:09.666Z,16.97
2018-10-16T23:34:38.140Z,16.47
2018-10-16T23:37:06.642Z,16.13
2018-10-16T23:39:35.107Z,15.80
2018-10-16T23:42:03.594Z,16.37
2018-10-16T23:44:32.036Z,16.47
2018-10-16T23:47:00.515Z,16.80
2018-10-16T23:49:29.018Z,16.87
2018-10-16T23:51:57.559Z,17.10
2018-10-16T23:54:26.029Z,17.10
2018-10-16T23:56:54.546Z,17.00
2018-10-16T23:59:23.009Z,16.47
